Time;durP1;ratioP1;P1;durP2;ratioP2;P2;SDS_P1;SDS_P2;PMS_P1;PMS_P2;Temp;Humidity;BMP_temperature;BMP_pressure;BME280_temperature;BME280_humidity;BME280_pressure;Samples;Min_cycle;Max_cycle;Signal;HPM_P1;HPM_P2
2021/05/21 00:03:57;;;;;;;;;;;10.40;99.90;;;8.57;73.17;95753.97;10366964;28;2001;-85
2021/05/21 00:09:00;;;;;;;;;;;9.80;99.90;;;8.56;73.15;95747.00;10338482;28;1891;-85
2021/05/21 00:14:04;;;;;;;;;;;10.60;99.90;;;8.54;73.04;95728.53;10347165;28;1847;-81
2021/05/21 00:19:07;;;;;;;;;;;9.70;99.90;;;8.52;73.54;95722.59;10328345;28;1810;-80
2021/05/21 00:24:10;;;;;;;;;;;10.40;99.90;;;8.48;73.31;95713.50;10264918;28;1499;-81
2021/05/21 00:29:14;;;;;;;;;;;9.70;99.90;;;8.48;73.58;95701.97;10329670;28;2008;-84
2021/05/21 00:34:17;;;;;;;;;;;10.50;99.90;;;8.44;73.60;95707.03;10335498;28;1873;-82
2021/05/21 00:39:21;;;;;;;;;;;9.70;99.90;;;8.42;73.95;95687.75;10341371;28;1696;-85
2021/05/21 00:44:25;;;;;;;;;;;9.70;99.90;;;8.39;74.67;95685.56;10339060;28;2037;-81
2021/05/21 00:49:28;;;;;;;;;;;10.20;99.90;;;8.39;75.14;95678.34;10322086;28;2040;-83
2021/05/21 00:54:32;;;;;;;;;;;9.60;99.90;;;8.37;74.82;95666.28;10324484;28;2526;-84
2021/05/21 00:59:35;;;;;;;;;;;9.50;99.90;;;8.50;74.63;95663.13;10269415;28;2192;-86
2021/05/21 01:04:38;;;;;;;;;;;10.70;99.90;;;8.57;74.43;95663.69;10321959;28;2184;-85
2021/05/21 01:09:42;;;;;;;;;;;9.60;99.90;;;8.42;73.61;95669.00;10346239;28;1728;-83
2021/05/21 01:14:45;;;;;;;;;;;10.50;99.90;;;8.44;74.15;95653.47;10351570;28;2035;-84
2021/05/21 01:19:48;;;;;;;;;;;9.60;99.90;;;8.30;74.05;95660.34;10264795;28;1944;-81
2021/05/21 01:24:53;;;;;;;;;;;9.80;99.90;;;8.27;74.41;95647.47;10332521;28;1923;-82
2021/05/21 01:29:57;;;;;;;;;;;10.30;99.90;;;8.18;74.70;95649.03;10328381;28;2332;-83
2021/05/21 01:35:01;;;;;;;;;;;9.50;99.90;;;8.11;75.52;95652.75;10323257;28;1908;-82
2021/05/21 01:40:05;;;;;;;;;;;9.40;99.90;;;8.11;75.66;95639.38;10255144;28;2213;-81
2021/05/21 01:45:08;;;;;;;;;;;9.40;99.90;;;7.99;75.98;95630.75;10321917;28;2079;-83
2021/05/21 01:50:11;;;;;;;;;;;9.20;99.90;;;7.93;77.00;95636.34;10334005;28;2167;-84
2021/05/21 01:55:15;;;;;;;;;;;10.10;99.90;;;7.96;76.41;95617.91;10261877;28;2080;-83
2021/05/21 02:00:18;;;;;;;;;;;9.10;99.90;;;8.11;76.57;95595.75;10343283;28;2104;-85
2021/05/21 02:05:21;;;;;;;;;;;10.40;99.90;;;8.17;75.89;95585.84;10345678;28;1976;-86
2021/05/21 02:10:24;;;;;;;;;;;9.30;99.90;;;8.00;75.54;95586.84;10344655;28;2109;-85
2021/05/21 02:15:28;;;;;;;;;;;10.30;99.90;;;7.93;76.18;95588.97;10339034;28;2087;-86
2021/05/21 02:20:31;;;;;;;;;;;9.20;99.90;;;8.01;76.49;95577.75;10367369;28;1870;-86
2021/05/21 02:25:35;;;;;;;;;;;10.40;99.90;;;8.16;75.11;95570.88;10359582;28;1969;-86
2021/05/21 02:30:38;;;;;;;;;;;9.20;99.90;;;8.20;74.93;95558.53;10335359;28;1860;-86
2021/05/21 02:35:41;;;;;;;;;;;10.30;99.90;;;8.20;74.72;95553.19;10340524;28;1869;-85
2021/05/21 02:40:45;;;;;;;;;;;9.30;99.90;;;8.22;74.76;95554.53;10346003;28;1693;-86
2021/05/21 02:45:48;;;;;;;;;;;10.30;99.90;;;8.01;74.72;95548.31;10357289;28;1981;-86
2021/05/21 02:50:51;;;;;;;;;;;9.20;99.90;;;7.91;75.50;95555.50;10333682;28;2055;-86
2021/05/21 02:55:54;;;;;;;;;;;10.40;99.90;;;7.90;75.62;95553.91;10349486;28;2095;-86
2021/05/21 03:00:57;;;;;;;;;;;9.20;99.90;;;7.97;75.57;95547.22;10347129;28;2027;-84
2021/05/21 03:06:00;;;;;;;;;;;10.20;99.90;;;8.14;75.27;95547.00;10369024;28;1960;-86
2021/05/21 03:11:03;;;;;;;;;;;9.20;99.90;;;8.21;73.55;95546.78;10354822;28;2014;-85
2021/05/21 03:16:06;;;;;;;;;;;10.10;99.90;;;8.22;73.46;95551.88;10355967;28;2029;-87
2021/05/21 03:21:09;;;;;;;;;;;9.30;99.90;;;8.24;72.83;95530.19;10341961;28;1769;-85
2021/05/21 03:26:12;;;;;;;;;;;10.30;99.90;;;8.28;72.77;95533.94;10355952;28;2050;-85
2021/05/21 03:31:15;;;;;;;;;;;9.40;99.90;;;8.17;73.08;95524.28;10287560;28;2044;-86
2021/05/21 03:36:18;;;;;;;;;;;9.30;99.90;;;8.07;73.06;95520.47;10362415;28;2010;-86
2021/05/21 03:41:20;;;;;;;;;;;9.30;99.90;;;8.13;73.90;95518.63;10342665;28;2020;-85
2021/05/21 03:46:23;;;;;;;;;;;9.40;99.90;;;8.24;72.93;95504.19;10362007;28;1958;-85
2021/05/21 03:51:27;;;;;;;;;;;10.20;99.90;;;8.47;72.24;95488.75;10379524;28;1959;-84
2021/05/21 03:56:30;;;;;;;;;;;9.40;99.90;;;8.71;71.31;95491.69;10302373;28;2056;-84
2021/05/21 04:01:33;;;;;;;;;;;10.70;99.90;;;8.92;69.98;95483.38;10348114;28;1835;-83
2021/05/21 04:06:37;;;;;;;;;;;9.80;99.90;;;9.16;68.93;95475.56;10338890;28;2184;-85
2021/05/21 04:11:41;;;;;;;;;;;9.90;99.90;;;9.50;67.05;95468.75;10318012;28;2104;-85
2021/05/21 04:17:03;;;;;;;;;;;10.30;99.90;;;9.72;66.41;95466.50;10258268;28;2094;-84
2021/05/21 04:22:26;;;;;;;;;;;10.50;99.90;;;9.69;65.99;95457.13;10267960;28;2157;-85
2021/05/21 04:27:30;;;;;;;;;;;10.60;99.90;;;9.68;65.75;95474.31;10342912;28;1891;-86
2021/05/21 04:32:33;;;;;;;;;;;10.70;99.90;;;9.81;64.57;95472.13;10288016;28;2060;-84
2021/05/21 04:37:35;;;;;;;;;;;10.80;99.90;;;9.82;64.64;95463.00;10371615;28;1947;-85
2021/05/21 04:42:39;;;;;;;;;;;10.80;99.90;;;9.95;63.20;95460.50;10262804;28;1998;-84
2021/05/21 04:47:42;;;;;;;;;;;10.90;99.90;;;10.15;63.15;95466.81;10333155;28;1914;-84
2021/05/21 04:52:45;;;;;;;;;;;11.00;99.90;;;10.44;61.50;95464.25;10348618;28;2160;-84
2021/05/21 04:57:50;;;;;;;;;;;11.20;99.90;;;10.86;60.00;95465.53;10341257;28;2010;-85
2021/05/21 05:02:53;;;;;;;;;;;11.50;99.90;;;11.07;59.79;95466.97;10336600;28;2327;-84
2021/05/21 05:08:00;;;;;;;;;;;11.80;99.90;;;11.31;58.16;95461.59;10334350;28;1993;-86
2021/05/21 05:13:06;;;;;;;;;;;12.00;99.90;;;11.64;57.18;95465.25;10283604;28;2319;-85
2021/05/21 05:18:10;;;;;;;;;;;12.20;99.90;;;12.36;54.87;95460.56;10267055;28;1910;-86
2021/05/21 05:23:13;;;;;;;;;;;12.70;99.90;;;12.68;52.79;95450.91;10351876;28;1887;-88
2021/05/21 05:28:16;;;;;;;;;;;13.10;99.90;;;12.78;52.28;95452.63;10339914;28;1895;-88
2021/05/21 05:33:19;;;;;;;;;;;13.40;99.90;;;12.74;52.29;95449.75;10335295;28;1821;-86
2021/05/21 05:38:23;;;;;;;;;;;13.50;99.90;;;12.82;52.72;95446.34;10270774;28;2060;-87
2021/05/21 05:43:26;;;;;;;;;;;13.60;99.90;;;12.85;52.00;95439.56;10346620;28;2021;-85
2021/05/21 05:48:30;;;;;;;;;;;13.60;99.90;;;12.84;52.56;95443.34;10356044;28;1948;-87
2021/05/21 05:53:36;;;;;;;;;;;13.60;99.90;;;12.83;52.18;95420.19;10348153;28;1634;-86
2021/05/21 05:58:41;;;;;;;;;;;13.70;99.90;;;12.96;51.05;95435.59;10279795;28;1962;-86
2021/05/21 06:03:45;;;;;;;;;;;13.80;99.90;;;13.25;51.31;95416.50;10286458;28;2028;-86
2021/05/21 06:09:03;;;;;;;;;;;13.90;99.90;;;13.35;50.87;95424.38;10274907;28;2419;-85
2021/05/21 06:14:13;;;;;;;;;;;14.10;99.90;;;13.98;49.27;95418.22;10333694;28;2075;-84
2021/05/21 06:19:17;;;;;;;;;;;14.50;99.90;;;14.01;49.06;95406.84;10312393;28;2116;-89
2021/05/21 06:24:34;;;;;;;;;;;14.70;99.90;;;14.72;46.99;95406.31;10341056;28;1756;-88
2021/05/21 06:29:39;;;;;;;;;;;15.00;99.90;;;14.46;47.05;95403.38;10308125;28;2245;-88
2021/05/21 06:34:44;;;;;;;;;;;15.20;99.90;;;14.88;46.19;95396.69;10350595;28;1668;-88
2021/05/21 06:40:04;;;;;;;;;;;15.40;99.90;;;15.45;44.80;95404.13;10361873;28;1301;-88
2021/05/21 06:45:09;;;;;;;;;;;15.80;99.90;;;15.92;43.23;95386.28;10337373;28;2110;-89
2021/05/21 06:50:24;;;;;;;;;;;16.30;98.30;;;15.76;43.93;95391.34;10337110;28;1966;-90
2021/05/21 06:55:29;;;;;;;;;;;16.50;96.80;;;16.13;42.87;95379.13;10348520;28;1512;-88
2021/05/21 07:00:42;;;;;;;;;;;16.60;96.00;;;16.18;43.10;95368.13;10292161;28;1364;-87
2021/05/21 07:05:57;;;;;;;;;;;16.80;94.70;;;16.23;42.96;95374.50;10344698;28;1919;-87
2021/05/21 07:11:26;;;;;;;;;;;16.90;94.10;;;16.61;41.90;95367.31;10291968;28;1793;-89
2021/05/21 07:16:35;;;;;;;;;;;17.10;93.50;;;16.27;43.19;95362.69;10315572;28;1828;-88
2021/05/21 07:21:48;;;;;;;;;;;17.10;93.40;;;16.46;43.36;95363.16;10336036;28;1570;-88
2021/05/21 07:26:57;;;;;;;;;;;17.10;92.70;;;16.86;42.38;95345.88;10369241;28;1902;-90
2021/05/21 07:32:04;;;;;;;;;;;17.40;92.00;;;18.33;38.54;95343.19;10368989;28;1991;-88
2021/05/21 07:37:09;;;;;;;;;;;18.10;90.00;;;19.15;36.74;95326.19;10387377;28;1906;-88
2021/05/21 07:42:13;;;;;;;;;;;19.10;87.30;;;19.00;37.31;95340.47;10289893;28;1701;-88
2021/05/21 07:47:21;;;;;;;;;;;19.40;85.00;;;18.40;39.15;95328.25;10350537;28;2043;-88
2021/05/21 07:52:29;;;;;;;;;;;19.30;84.30;;;19.08;36.11;95326.72;10394934;28;1378;-89
2021/05/21 07:57:37;;;;;;;;;;;19.50;82.40;;;19.09;36.37;95333.00;10362220;28;1657;-87
2021/05/21 08:02:50;;;;;;;;;;;19.80;80.50;;;19.02;35.70;95330.00;10375832;28;1950;-88
2021/05/21 08:08:01;;;;;;;;;;;19.70;78.60;;;18.23;37.25;95321.81;10371343;28;1950;-86
2021/05/21 08:13:10;;;;;;;;;;;19.40;78.30;;;18.40;38.53;95312.69;10350278;28;1892;-88
2021/05/21 08:18:17;;;;;;;;;;;19.10;80.00;;;17.67;39.14;95285.88;10340523;28;1645;-90
2021/05/21 08:23:26;;;;;;;;;;;18.90;78.80;;;17.64;38.44;95296.63;10363051;28;1494;-89
2021/05/21 08:28:34;;;;;;;;;;;18.60;78.30;;;17.25;39.30;95313.00;10348337;28;1922;-89
2021/05/21 08:33:45;;;;;;;;;;;18.30;79.10;;;16.90;39.56;95312.31;10354225;28;1864;-89
2021/05/21 08:38:49;;;;;;;;;;;18.00;78.60;;;16.52;39.31;95300.59;10360274;28;1937;-88
2021/05/21 08:43:54;;;;;;;;;;;17.70;77.80;;;16.36;39.79;95314.66;10352014;28;1761;-87
2021/05/21 08:49:02;;;;;;;;;;;17.50;78.10;;;16.45;39.63;95298.38;10351972;28;1979;-89
2021/05/21 08:54:09;;;;;;;;;;;17.40;79.00;;;15.96;57.95;95305.91;10323108;28;1648;-88
2021/05/21 08:59:15;;;;;;;;;;;;;;;15.22;54.52;95300.50;10321148;28;2060;-87
2021/05/21 09:04:20;;;;;;;;;;;;;;;15.01;54.58;95297.56;10326449;28;1908;-87
2021/05/21 09:09:24;;;;;;;;;;;16.60;99.90;;;15.42;52.02;95294.50;10334803;28;2009;-89
2021/05/21 09:14:39;;;;;;;;;;;16.10;99.90;;;16.57;46.32;95276.00;10380244;28;1939;-87
2021/05/21 09:19:45;;;;;;;;;;;16.70;99.90;;;16.94;43.95;95280.69;10368947;28;2189;-90
2021/05/21 09:25:21;;;;;;;;;;;17.10;99.90;;;17.43;41.19;95280.28;10329690;28;2028;-89
2021/05/21 09:30:29;;;;;;;;;;;17.70;99.90;;;18.11;40.41;95278.22;10342383;28;1992;-90
2021/05/21 09:41:52;;;;;;;;;;;;;;;;;;;;;
2021/05/21 09:47:12;;;;;;;;;;;19.40;95.80;;;19.80;34.83;95263.59;10256437;28;2163;-90
2021/05/21 09:52:29;;;;;;;;;;;20.10;92.40;;;19.79;35.16;95260.09;10324744;28;1612;-89
2021/05/21 10:09:37;;;;;;;;;;;20.70;87.90;;;20.07;35.40;95237.50;10303011;28;1882;-86
2021/05/21 10:14:47;;;;;;;;;;;20.70;86.90;;;19.28;38.16;95242.53;10350193;28;2092;-87
2021/05/21 10:19:53;;;;;;;;;;;20.30;87.50;;;18.18;41.36;95267.59;10325158;28;1761;-88
2021/05/21 10:24:56;;;;;;;;;;;20.10;94.70;;;17.50;48.53;95277.88;10343093;28;1439;-88
2021/05/21 10:29:59;;;;;;;;;;;19.00;99.90;;;17.02;49.55;95265.50;10332304;28;1979;-87
2021/05/21 10:35:04;;;;;;;;;;;18.10;99.90;;;17.29;46.28;95266.94;10339440;28;1658;-87
2021/05/21 10:40:09;;;;;;;;;;;17.90;98.70;;;17.27;43.49;95267.28;10335403;28;1860;-88
2021/05/21 10:45:12;;;;;;;;;;;18.00;96.70;;;17.12;44.07;95284.16;10369939;28;1979;-89
2021/05/21 10:50:18;;;;;;;;;;;18.00;95.90;;;17.08;44.30;95282.41;10330693;28;1894;-88
2021/05/21 10:55:21;;;;;;;;;;;17.80;97.10;;;17.01;47.27;95301.91;10334687;28;1925;-88
2021/05/21 11:00:25;;;;;;;;;;;17.80;99.90;;;16.37;51.47;95323.59;10348492;28;1922;-87
2021/05/21 11:05:29;;;;;;;;;;;17.40;99.90;;;15.66;54.35;95332.84;10261475;28;1950;-89
2021/05/21 11:10:32;;;;;;;;;;;16.90;99.90;;;14.91;58.24;95343.84;10348063;28;2028;-88
2021/05/21 11:15:38;;;;;;;;;;;16.10;99.90;;;14.29;62.76;95358.88;10280316;28;2046;-87
2021/05/21 11:20:47;;;;;;;;;;;15.60;99.90;;;13.84;68.08;95358.03;10320295;28;1412;-87
2021/05/21 11:25:53;;;;;;;;;;;15.00;99.90;;;13.49;70.06;95360.41;10267514;28;1412;-87
2021/05/21 11:31:13;;;;;;;;;;;14.50;99.90;;;13.34;71.73;95365.31;10355835;28;2137;-88
2021/05/21 11:36:28;;;;;;;;;;;14.20;99.90;;;13.42;73.07;95370.81;10367873;28;1442;-88
2021/05/21 11:41:43;;;;;;;;;;;14.20;99.90;;;13.58;72.87;95373.19;10344866;28;1623;-87
2021/05/21 11:47:03;;;;;;;;;;;14.20;99.90;;;13.68;72.71;95365.69;10341133;28;1956;-88
2021/05/21 11:52:14;;;;;;;;;;;14.40;99.90;;;13.79;72.66;95383.25;10357371;28;2093;-88
2021/05/21 11:57:25;;;;;;;;;;;14.40;99.90;;;13.33;74.76;95375.31;10362207;28;2363;-86
2021/05/21 12:02:33;;;;;;;;;;;14.20;99.90;;;13.40;75.46;95374.91;10363815;28;2092;-87
2021/05/21 12:07:41;;;;;;;;;;;13.90;99.90;;;13.65;75.33;95382.47;10349527;28;1891;-88
2021/05/21 12:12:54;;;;;;;;;;;14.30;99.90;;;13.37;76.75;95376.31;10355540;28;2192;-87
2021/05/21 12:23:38;;;;;;;;;;;13.90;99.90;;;13.21;79.34;95369.59;10399401;28;2116;-87
2021/05/21 12:28:43;;;;;;;;;;;13.80;99.90;;;13.56;75.58;95356.50;10344807;28;2135;-87
2021/05/21 12:34:01;;;;;;;;;;;14.10;99.90;;;13.90;76.14;95351.41;10374055;28;1623;-87
2021/05/21 12:39:20;;;;;;;;;;;14.30;99.90;;;14.50;71.57;95347.59;10345005;28;1605;-88
2021/05/21 12:44:26;;;;;;;;;;;14.80;99.90;;;14.50;69.37;95358.41;10349720;28;1479;-89
2021/05/21 12:49:32;;;;;;;;;;;15.00;99.90;;;14.49;67.01;95338.69;10336119;28;2337;-88
2021/05/21 12:54:40;;;;;;;;;;;15.10;99.90;;;14.85;66.92;95343.19;10363095;28;1828;-87
2021/05/21 12:59:48;;;;;;;;;;;15.30;99.90;;;15.65;62.64;95339.38;10351454;28;2046;-90
2021/05/21 13:04:55;;;;;;;;;;;15.80;99.90;;;15.80;63.04;95335.41;10352179;28;1928;-88
2021/05/21 13:10:02;;;;;;;;;;;16.10;99.90;;;16.17;61.46;95323.13;10327510;28;2146;-86
2021/05/21 13:15:08;;;;;;;;;;;16.60;99.90;;;15.72;59.80;95327.28;10360570;28;2267;-87
2021/05/21 13:20:15;;;;;;;;;;;16.40;99.90;;;16.12;60.01;95312.44;10349319;28;1875;-87
2021/05/21 13:25:18;;;;;;;;;;;16.50;99.90;;;15.79;59.96;95325.69;10345383;28;2299;-88
2021/05/21 13:30:23;;;;;;;;;;;16.50;99.90;;;14.99;61.09;95324.16;10339627;28;1954;-87
2021/05/21 13:35:27;;;;;;;;;;;16.00;99.90;;;15.16;60.34;95339.66;10265795;28;2124;-87
2021/05/21 13:40:31;;;;;;;;;;;15.80;99.90;;;14.82;62.05;95335.69;10282819;28;1893;-85
2021/05/21 13:45:34;;;;;;;;;;;15.70;99.90;;;14.14;63.28;95342.22;10339606;28;2122;-88
2021/05/21 13:50:38;;;;;;;;;;;15.30;99.90;;;14.20;64.54;95332.91;10327069;28;1914;-86
2021/05/21 13:55:41;;;;;;;;;;;15.00;99.90;;;14.07;65.57;95329.16;10313326;28;1590;-85
2021/05/21 14:00:44;;;;;;;;;;;14.80;99.90;;;13.84;67.82;95314.81;10280634;28;2017;-85
2021/05/21 14:05:47;;;;;;;;;;;14.80;99.90;;;13.29;69.74;95336.50;10287013;28;1979;-88
2021/05/21 14:10:51;;;;;;;;;;;14.40;99.90;;;13.09;71.73;95343.06;10332824;28;2046;-86
2021/05/21 14:15:53;;;;;;;;;;;14.10;99.90;;;13.04;70.23;95326.19;10327231;28;2010;-86
2021/05/21 14:20:56;;;;;;;;;;;13.90;99.90;;;13.03;71.61;95340.78;10322908;28;2065;-85
2021/05/21 14:25:59;;;;;;;;;;;13.70;99.90;;;12.99;72.10;95340.59;10331089;28;2124;-86
2021/05/21 14:31:03;;;;;;;;;;;13.70;99.90;;;12.97;71.16;95342.78;10319232;28;1973;-87
2021/05/21 14:36:12;;;;;;;;;;;13.80;99.90;;;12.57;74.07;95336.22;10330153;28;2105;-87
2021/05/21 14:41:34;;;;;;;;;;;13.50;99.90;;;12.55;74.50;95338.44;10325701;28;1859;-87
2021/05/21 14:46:41;;;;;;;;;;;13.40;99.90;;;12.69;75.31;95333.84;10378314;28;2113;-89
2021/05/21 14:51:58;;;;;;;;;;;13.40;99.90;;;12.49;75.07;95342.31;10356620;28;1824;-87
2021/05/21 14:57:01;;;;;;;;;;;13.30;99.90;;;12.49;76.41;95340.41;10351244;28;2102;-87
2021/05/21 15:02:08;;;;;;;;;;;13.20;99.90;;;12.22;73.93;95330.34;10369194;28;1496;-85
2021/05/21 15:07:25;;;;;;;;;;;13.20;99.90;;;11.97;76.90;95328.06;10307525;28;2351;-87
2021/05/21 15:12:29;;;;;;;;;;;12.90;99.90;;;11.72;76.72;95327.31;10354127;28;2102;-88
2021/05/21 15:17:53;;;;;;;;;;;12.60;99.90;;;11.69;78.26;95314.41;10319486;28;2285;-87
2021/05/21 15:28:18;;;;;;;;;;;12.50;99.90;;;11.47;81.72;95308.81;10316158;28;1919;-86
2021/05/21 15:33:22;;;;;;;;;;;12.30;99.90;;;11.51;81.69;95301.75;10331939;28;1864;-87
2021/05/21 15:38:25;;;;;;;;;;;12.30;99.90;;;11.49;82.53;95285.09;10332727;28;2014;-87
2021/05/21 15:48:59;;;;;;;;;;;12.30;99.90;;;11.64;79.50;95282.19;10354640;28;2144;-86
2021/05/21 15:54:24;;;;;;;;;;;12.50;99.90;;;11.79;80.41;95273.88;10260658;28;1864;-88
2021/05/21 15:59:34;;;;;;;;;;;12.50;99.90;;;11.68;79.03;95266.25;10353599;28;2091;-86
2021/05/21 16:04:44;;;;;;;;;;;12.50;99.90;;;11.66;79.39;95269.25;10325440;28;2151;-85
2021/05/21 16:09:53;;;;;;;;;;;12.40;99.90;;;11.64;77.79;95260.63;10330446;28;2032;-85
2021/05/21 16:14:59;;;;;;;;;;;12.50;99.90;;;11.54;80.45;95263.50;10335604;28;2072;-85
2021/05/21 16:20:08;;;;;;;;;;;12.30;99.90;;;11.54;76.75;95260.81;10319363;28;2057;-85
2021/05/21 16:25:12;;;;;;;;;;;12.40;99.90;;;11.52;78.80;95252.25;10339315;28;2067;-84
2021/05/21 16:30:15;;;;;;;;;;;12.40;99.90;;;11.30;81.89;95252.81;10321901;28;2069;-85
2021/05/21 16:35:19;;;;;;;;;;;12.30;99.90;;;11.35;83.17;95258.13;10339662;28;2135;-84
2021/05/21 16:40:22;;;;;;;;;;;12.30;99.90;;;11.47;83.81;95249.63;10338517;28;1688;-85
2021/05/21 16:45:29;;;;;;;;;;;12.30;99.90;;;11.12;85.00;95237.44;10332823;28;2065;-85
2021/05/21 16:50:37;;;;;;;;;;;12.10;99.90;;;10.97;86.75;95225.00;10325599;28;1971;-85
2021/05/21 16:55:48;;;;;;;;;;;12.00;99.90;;;10.92;85.96;95211.63;10315261;28;2024;-85
2021/05/21 17:00:53;;;;;;;;;;;12.00;99.90;;;10.95;88.00;95216.44;10264474;28;2088;-86
2021/05/21 17:05:57;;;;;;;;;;;11.90;99.90;;;10.93;88.68;95202.47;10329113;28;1793;-85
2021/05/21 17:11:04;;;;;;;;;;;11.80;99.90;;;10.85;88.01;95197.75;10321130;28;1983;-87
2021/05/21 17:16:11;;;;;;;;;;;11.80;99.90;;;10.70;89.34;95206.81;10327166;28;1994;-85
2021/05/21 17:27:08;;;;;;;;;;;11.60;99.90;;;10.49;89.79;95184.72;10308692;28;1936;-84
2021/05/21 17:42:55;;;;;;;;;;;11.20;99.90;;;10.12;93.47;95167.41;10291178;28;1917;-85
2021/05/21 17:47:58;;;;;;;;;;;11.10;99.90;;;10.11;93.32;95163.09;10247940;28;2062;-84
2021/05/21 17:53:23;;;;;;;;;;;11.10;99.90;;;10.04;93.75;95162.63;10322878;28;2164;-84
2021/05/21 18:09:11;;;;;;;;;;;10.90;99.90;;;9.87;95.99;95146.19;10253295;28;1914;-85
2021/05/21 19:02:45;;;;;;;;;;;10.40;99.90;;;9.44;100.00;95103.91;10289891;28;1578;-85
2021/05/21 19:07:50;;;;;;;;;;;10.30;99.90;;;9.42;100.00;95086.50;10302104;28;1895;-87
2021/05/21 19:12:58;;;;;;;;;;;10.40;99.90;;;9.39;100.00;95105.84;10335362;28;1454;-87
2021/05/21 19:18:09;;;;;;;;;;;10.40;99.90;;;9.36;100.00;95104.53;10338231;28;1408;-86
2021/05/21 19:23:25;;;;;;;;;;;10.20;99.90;;;9.34;100.00;95097.84;10319713;28;1574;-88
2021/05/21 19:28:34;;;;;;;;;;;10.30;99.90;;;9.30;100.00;95115.59;10336814;28;1950;-86
2021/05/21 19:33:52;;;;;;;;;;;10.30;99.90;;;9.32;100.00;95126.81;10335407;28;1596;-87
2021/05/21 19:39:14;;;;;;;;;;;10.20;99.90;;;9.27;100.00;95130.34;10339709;28;1536;-86
2021/05/21 19:44:34;;;;;;;;;;;10.20;99.90;;;9.23;100.00;95109.75;10276785;28;1363;-88
2021/05/21 20:00:49;;;;;;;;;;;10.00;99.90;;;9.11;100.00;95089.47;10324905;28;1619;-88
2021/05/21 20:16:32;;;;;;;;;;;10.00;99.90;;;9.09;100.00;95088.91;10382867;28;1475;-88
2021/05/21 20:21:35;;;;;;;;;;;10.00;99.90;;;9.05;100.00;95079.06;10358893;28;1432;-87
2021/05/21 20:26:37;;;;;;;;;;;10.00;99.90;;;9.06;100.00;95060.00;10352621;28;1266;-88
2021/05/21 20:32:03;;;;;;;;;;;10.00;99.90;;;9.00;100.00;95039.69;10359223;28;1906;-86
2021/05/21 20:42:40;;;;;;;;;;;10.00;99.90;;;8.95;100.00;95079.91;10268247;28;1967;-87
2021/05/21 21:09:10;;;;;;;;;;;9.80;99.90;;;8.77;100.00;95104.69;10305011;28;2103;-87
2021/05/21 21:14:35;;;;;;;;;;;9.70;99.90;;;8.70;100.00;95122.97;10342194;28;1576;-89
2021/05/21 21:19:53;;;;;;;;;;;9.70;99.90;;;8.63;100.00;95136.69;10384012;28;1832;-89
2021/05/21 21:25:20;;;;;;;;;;;9.60;99.90;;;8.58;100.00;95120.63;10355636;28;1825;-89
2021/05/21 21:30:30;;;;;;;;;;;9.50;99.90;;;8.49;100.00;95123.09;10357887;28;1962;-89
2021/05/21 21:52:01;;;;;;;;;;;9.20;99.90;;;8.18;100.00;95167.09;10349045;28;1955;-88
2021/05/21 21:57:16;;;;;;;;;;;9.10;99.90;;;8.14;100.00;95174.88;10358013;28;1523;-89
2021/05/21 22:02:27;;;;;;;;;;;9.00;99.90;;;8.05;100.00;95185.34;10364682;28;1848;-92
2021/05/21 22:07:43;;;;;;;;;;;9.00;99.90;;;7.97;100.00;95193.94;10381084;28;1905;-91
2021/05/21 22:13:05;;;;;;;;;;;8.90;99.90;;;7.85;100.00;95196.91;10358314;28;1894;-91
2021/05/21 22:18:34;;;;;;;;;;;8.80;99.90;;;7.74;100.00;95195.31;10313393;28;1974;-90
2021/05/21 22:24:06;;;;;;;;;;;8.70;99.90;;;7.71;100.00;95200.41;10280248;28;1916;-91
2021/05/21 22:29:29;;;;;;;;;;;8.60;99.90;;;7.65;100.00;95210.31;10297818;28;1887;-91
2021/05/21 22:34:52;;;;;;;;;;;8.60;99.90;;;7.57;100.00;95184.91;10281624;28;1850;-90
2021/05/21 22:40:15;;;;;;;;;;;8.50;99.90;;;7.62;100.00;95185.94;10274704;28;1853;-87
2021/05/21 22:45:19;;;;;;;;;;;8.50;99.90;;;7.57;100.00;95184.91;10331377;28;1825;-88
2021/05/21 22:50:21;;;;;;;;;;;8.40;99.90;;;7.64;100.00;95181.97;10324609;28;1899;-87
2021/05/21 22:55:24;;;;;;;;;;;8.40;99.90;;;7.61;100.00;95162.94;10318588;28;1652;-88
2021/05/21 23:00:26;;;;;;;;;;;8.50;99.90;;;7.56;100.00;95139.69;10321803;28;2049;-87
2021/05/21 23:05:29;;;;;;;;;;;8.50;99.90;;;7.51;100.00;95145.06;10348221;28;2056;-88
2021/05/21 23:10:32;;;;;;;;;;;8.40;99.90;;;7.51;100.00;95147.75;10319861;28;1954;-87
2021/05/21 23:15:35;;;;;;;;;;;8.40;99.90;;;7.44;100.00;95158.69;10305279;28;2001;-87
2021/05/21 23:20:45;;;;;;;;;;;8.30;99.90;;;7.36;100.00;95161.09;10251380;28;1884;-87
2021/05/21 23:25:48;;;;;;;;;;;8.20;99.90;;;7.32;100.00;95163.53;10342226;28;1844;-88
2021/05/21 23:30:50;;;;;;;;;;;8.30;99.90;;;7.34;100.00;95163.25;10339956;28;1970;-87
2021/05/21 23:35:56;;;;;;;;;;;8.30;99.90;;;7.26;100.00;95154.69;10315999;28;2056;-88
2021/05/21 23:40:58;;;;;;;;;;;8.20;99.90;;;7.19;100.00;95166.69;10316865;28;1849;-86
2021/05/21 23:46:01;;;;;;;;;;;8.10;99.90;;;7.16;100.00;95180.59;10321622;28;2085;-88
2021/05/21 23:51:04;;;;;;;;;;;8.00;99.90;;;7.13;100.00;95189.19;10364686;28;2155;-88
2021/05/21 23:56:07;;;;;;;;;;;8.10;99.90;;;7.05;100.00;95161.88;10354320;28;1755;-87
